map of SBCO home
SBCO - Airport
Location
City:  Porto Alegre, Rio Grande do Sul, Brazil
Name:Canoas
ICAO:SBCO

Details
Type:Airport (Aerodrome, Airfield)
Use:Military
Latitude:2956'45"S (-29.945943)
Longitude:5108'40"W (-51.144366)
Datum:WGS 1984
Elevation:26 ft (8 m)
Variation:17.08W (WMM2015 magnetic declination)
-0.15 annual change
Runways:1
Longest:9025 × 145 ft (2751 × 44 m), paved

Time
Time Zone:UTC-3 (DST-2)
Local Time:

Weather
METAR:SBCO 161400Z 29016G26KT 9999 FEW040TCU SCT080 31/24 Q1009
TAF:SBCO 160830Z 1612/1624 29010KT 9999 SCT035 TX32/1615Z TN25/1623Z
TEMPO 1615/1617 VCSH SCT035 FEW040TCU
RMK PDW

Related Locations
Nearby:
Farthest:KUM: 12332 mi / 19846 km
Yakushima [Yakushima Airport], Yakushima Island, Satsunan Islands, 46, JP

Find:

   beyond  
but within

Other Information
Maps:
NOTAMs:
Links:
Sources:

  
  • flag of Brazil
  • flag of Rio Grande do Sul
  • flag of Porto Alegre
  

Sectional Chart

Flight Planning
at skyvector.com

Satellite Image

Google Maps Satellite view

 

Copyright © 2004-2019 Karl L. Swartz. All rights reserved.
The Great Circle Mapper name and logo are trademarks of the Great Circle Mapper.
All other trademarks mentioned herein belong to their respective owners.
Please see credits for attibutions and further copyright information.

  Follow gcmap on Facebook Follow gcmap on Twitter Follow gcmap on Google+ GCmap on LinkedIn

hCard Microformat

Geo Microformat